Seward, AK

1:01 PM AKDT on May 06, 2015 (GMT -0800)
Soldotna | | Change Station
CLOSE
Current Station
Airport
Location: Soldotna,
Elevation: 112 ft
Nearby Weather Stations

Elev 112 ft 60.48 °N, 151.03 °W | Updated 25 minutes ago

Overcast
Overcast
52 °F
Feels Like 52 °F
N
14
Wind Variable Wind from East
Gusts 18 mph

Today
High -- | Low -- °F
--% Chance of Precip.
Yesterday
High -- | Low -- °F
Precip. -- in
5:41 AM 10:08 PM
Waning Gibbous, 92% visible
Pressure 30.00 in
Visibility 10.0 miles
Clouds Scattered Clouds 6000 ft
Mostly Cloudy 7500 ft
Overcast 8000 ft
Dew Point 36 °F
Humidity 54%
Rainfall 0.00 in
Snow Depth Not available.
UV 2 out of 12
Pollen Not available.
Air Quality Not available.
Flu Activity Sporadic
METAR PASX 062036Z AUTO 08012G16KT 10SM SCT060 BKN075 OVC080 11/02 A3000 RMK AO1

More Conditions Fewer Conditions

Pressure 30.00 in
Visibility 10.0 miles
Clouds Scattered Clouds 6000 ft
Mostly Cloudy 7500 ft
Overcast 8000 ft
Dew Point 36 °F
Humidity 54%
Rainfall 0.00 in
Snow Depth Not available.
UV 2 out of 12
Pollen Not available.
Air Quality Not available.
Flu Activity Sporadic
METAR PASX 062036Z AUTO 08012G16KT 10SM SCT060 BKN075 OVC080 11/02 A3000 RMK AO1

More Conditions Fewer Conditions

10-Day Weather Forecast

Almanac

Astronomy

May. 06, 2015 Rise Set
Actual Time
Civil Twilight
Nautical Twilight
Astronomical Twilight
Moon
Length of Visible Light
Length of Day
Tomorrow will be .
, % of the Moon is Illuminated

Today's Extremes

State Highs State Lows

Community

WunderPhotos

Upload Photos

1,819,014 photos uploaded!

WunderBlogs® & News

Nearby

Air Quality

  Air Quality AQ Index Pollutant
Not available.

Snow Depth

Station Depth Elevation

Earthquake Activity

City Distance Mag. Time & Date
Minimum magnitude displayed is 2.5.

Coastal Water Temperatures

Place Temperature

Stations

Nearby Weather Stations

Station Location Temp. Windchill Dew Point Humidity Wind Precip. Elev Updated Type